createdAt,value
2022-08-07T00:02:36.475Z,21.90
2022-08-07T00:09:16.788Z,22.28
2022-08-07T00:16:21.780Z,20.17
2022-08-07T00:23:31.547Z,22.14
2022-08-07T00:29:31.449Z,21.74
2022-08-07T00:37:14.933Z,21.29
2022-08-07T00:42:29.470Z,22.89
2022-08-07T00:55:25.529Z,20.99
2022-08-07T00:56:45.276Z,21.56
2022-08-07T01:06:59.438Z,21.23
2022-08-07T01:10:56.279Z,21.58
2022-08-07T01:17:30.590Z,21.25
2022-08-07T01:24:13.048Z,20.99
2022-08-07T01:30:59.615Z,21.31
2022-08-07T01:37:28.110Z,21.07
2022-08-07T01:43:52.839Z,22.45
2022-08-07T01:49:29.276Z,20.06
2022-08-07T01:55:43.854Z,19.81
2022-08-07T02:01:59.716Z,21.79
2022-08-07T02:08:23.854Z,21.12
2022-08-07T02:14:14.548Z,20.73
2022-08-07T02:21:55.187Z,21.78
2022-08-07T02:27:44.866Z,19.38
2022-08-07T02:34:11.583Z,20.25
2022-08-07T02:40:11.881Z,21.46
2022-08-07T02:48:55.186Z,20.46
2022-08-07T02:53:22.016Z,19.64
2022-08-07T02:59:40.946Z,20.77
2022-08-07T03:05:42.421Z,21.34
2022-08-07T03:12:02.741Z,20.15
2022-08-07T03:18:41.119Z,19.64
2022-08-07T03:24:17.908Z,20.79
2022-08-07T03:30:24.303Z,19.88
2022-08-07T03:36:34.922Z,18.92
2022-08-07T03:42:32.835Z,20.35
2022-08-07T03:49:19.513Z,20.22
2022-08-07T03:55:14.522Z,17.82
2022-08-07T04:00:56.985Z,18.19
2022-08-07T04:06:50.989Z,20.07
2022-08-07T04:12:40.679Z,19.66
2022-08-07T04:18:59.754Z,18.83
2022-08-07T04:25:19.519Z,20.01
2022-08-07T04:31:38.735Z,18.14
2022-08-07T04:38:03.537Z,20.15
2022-08-07T04:44:18.478Z,19.67
2022-08-07T04:50:33.474Z,19.21
2022-08-07T04:58:16.756Z,20.32
2022-08-07T05:03:02.198Z,18.30
2022-08-07T05:09:43.121Z,19.47
2022-08-07T05:15:38.575Z,20.43
2022-08-07T05:21:59.510Z,19.92
2022-08-07T05:28:29.059Z,18.71
2022-08-07T05:34:26.319Z,20.83
2022-08-07T05:40:26.475Z,19.93
2022-08-07T05:52:52.285Z,21.01
2022-08-07T05:59:05.218Z,19.27
2022-08-07T06:05:07.619Z,19.88
2022-08-07T06:11:43.073Z,21.76
2022-08-07T06:17:53.509Z,20.24
2022-08-07T06:23:46.791Z,20.69
2022-08-07T06:29:39.060Z,21.87
2022-08-07T06:42:33.069Z,20.22
2022-08-07T06:45:02.602Z,20.56
2022-08-07T06:48:31.254Z,22.54
2022-08-07T06:55:32.525Z,22.03
2022-08-07T07:02:49.280Z,20.60
2022-08-07T07:07:01.186Z,21.56
2022-08-07T07:13:06.545Z,22.71
2022-08-07T07:19:16.196Z,21.55
2022-08-07T07:26:30.773Z,21.30
2022-08-07T07:31:23.661Z,22.69
2022-08-07T07:37:21.558Z,21.63
2022-08-07T07:44:14.613Z,21.31
2022-08-07T07:50:33.699Z,22.40
2022-08-07T07:55:37.074Z,21.35
2022-08-07T08:02:02.299Z,20.93
2022-08-07T08:07:42.335Z,22.91
2022-08-07T08:13:54.754Z,22.67
2022-08-07T08:20:17.810Z,21.87
2022-08-07T08:26:12.555Z,21.57
2022-08-07T08:32:17.550Z,21.47
2022-08-07T08:38:01.338Z,21.33
2022-08-07T08:44:13.700Z,21.24
2022-08-07T08:50:06.134Z,21.36
2022-08-07T08:55:58.811Z,21.47
2022-08-07T09:02:08.732Z,21.36
2022-08-07T09:07:58.085Z,21.28
2022-08-07T09:14:27.479Z,21.36
2022-08-07T09:20:42.279Z,21.39
2022-08-07T09:27:13.478Z,21.39
2022-08-07T09:33:24.432Z,21.41
2022-08-07T09:39:55.454Z,21.46
2022-08-07T09:47:51.541Z,21.40
2022-08-07T09:52:10.726Z,21.37
2022-08-07T09:58:16.165Z,21.31
2022-08-07T10:04:06.536Z,21.20
2022-08-07T10:10:22.802Z,21.07
2022-08-07T10:16:33.954Z,20.98
2022-08-07T10:24:21.335Z,20.95
2022-08-07T10:28:55.634Z,20.96
2022-08-07T10:35:56.710Z,20.93
2022-08-07T10:41:47.370Z,20.79
2022-08-07T10:47:53.728Z,20.71
2022-08-07T10:53:49.097Z,20.76
2022-08-07T11:00:39.258Z,20.88
2022-08-07T11:06:44.442Z,21.19
2022-08-07T11:12:44.744Z,21.44
2022-08-07T11:18:41.813Z,21.79
2022-08-07T11:24:58.455Z,22.10
2022-08-07T11:30:46.159Z,22.07
2022-08-07T11:36:47.684Z,21.93
2022-08-07T11:42:43.243Z,21.87
2022-08-07T11:49:51.392Z,21.90
2022-08-07T11:56:08.592Z,21.87
2022-08-07T12:01:25.526Z,21.96
2022-08-07T12:08:25.466Z,22.29
2022-08-07T12:14:07.413Z,23.02
2022-08-07T12:20:14.051Z,23.73
2022-08-07T12:26:42.027Z,24.03
2022-08-07T12:32:52.229Z,23.92
2022-08-07T12:38:42.524Z,23.77
2022-08-07T12:44:19.414Z,23.71
2022-08-07T12:50:34.095Z,23.58
2022-08-07T12:56:11.353Z,23.45
2022-08-07T13:01:59.626Z,23.50
2022-08-07T13:08:12.537Z,24.10
2022-08-07T13:14:17.148Z,24.96
2022-08-07T13:20:01.180Z,25.59
2022-08-07T13:25:41.809Z,26.09
2022-08-07T13:31:32.160Z,26.21
2022-08-07T13:37:26.720Z,25.88
2022-08-07T13:43:12.070Z,25.40
2022-08-07T13:48:41.041Z,25.06
2022-08-07T13:54:22.675Z,25.16
2022-08-07T14:00:03.306Z,25.46
2022-08-07T14:05:41.809Z,25.82
2022-08-07T14:11:15.426Z,25.78
2022-08-07T14:16:50.476Z,25.56
2022-08-07T14:22:46.257Z,25.31
2022-08-07T14:28:55.888Z,25.00
2022-08-07T14:34:10.203Z,24.82
2022-08-07T14:40:15.847Z,25.07
2022-08-07T14:45:46.688Z,25.41
2022-08-07T14:51:22.726Z,25.92
2022-08-07T14:56:51.666Z,26.28
2022-08-07T15:02:34.124Z,26.37
2022-08-07T15:08:05.928Z,26.32
2022-08-07T15:13:43.700Z,26.57
2022-08-07T15:19:11.310Z,26.84
2022-08-07T15:25:14.899Z,26.95
2022-08-07T15:31:05.179Z,27.21
2022-08-07T15:37:02.691Z,27.50
2022-08-07T15:42:44.931Z,27.65
2022-08-07T15:48:12.615Z,27.46
2022-08-07T15:53:51.678Z,26.95
2022-08-07T15:59:39.697Z,26.32
2022-08-07T16:05:31.382Z,25.87
2022-08-07T16:11:26.981Z,25.73
2022-08-07T16:18:01.866Z,25.60
2022-08-07T16:23:59.402Z,25.45
2022-08-07T16:30:10.983Z,25.34
2022-08-07T16:35:58.781Z,25.14
2022-08-07T16:41:48.725Z,25.09
2022-08-07T16:47:56.945Z,25.23
2022-08-07T16:54:02.016Z,25.32
2022-08-07T16:59:57.206Z,25.52
2022-08-07T17:06:22.449Z,25.54
2022-08-07T17:12:04.476Z,25.49
2022-08-07T17:17:50.403Z,25.45
2022-08-07T17:23:51.228Z,25.33
2022-08-07T17:30:13.969Z,24.90
2022-08-07T17:36:00.361Z,24.45
2022-08-07T17:42:06.719Z,24.31
2022-08-07T17:48:11.266Z,23.99
2022-08-07T17:53:59.947Z,23.55
2022-08-07T17:59:43.103Z,23.11
2022-08-07T18:05:22.279Z,22.65
2022-08-07T18:12:07.797Z,22.21
2022-08-07T18:18:46.719Z,21.78
2022-08-07T18:24:07.316Z,21.28
2022-08-07T18:30:07.659Z,20.95
2022-08-07T18:36:10.745Z,20.65
2022-08-07T18:42:42.473Z,20.38
2022-08-07T18:50:30.572Z,20.12
2022-08-07T18:55:41.974Z,19.85
2022-08-07T19:02:32.623Z,19.59
2022-08-07T19:08:28.805Z,19.36
2022-08-07T19:14:32.420Z,19.15
2022-08-07T19:20:29.791Z,18.95
2022-08-07T19:26:25.143Z,18.78
2022-08-07T19:32:17.169Z,18.60
2022-08-07T19:38:15.103Z,18.43
2022-08-07T19:43:56.807Z,18.30
2022-08-07T19:50:02.602Z,18.19
2022-08-07T19:55:57.507Z,18.08
2022-08-07T20:01:58.050Z,18.00
2022-08-07T20:07:47.795Z,17.91
2022-08-07T20:13:32.170Z,17.84
2022-08-07T20:19:58.285Z,17.81
2022-08-07T20:26:32.425Z,17.79
2022-08-07T20:33:04.923Z,17.75
2022-08-07T21:12:16.368Z,17.82
2022-08-07T21:18:46.034Z,18.60
2022-08-07T21:25:12.927Z,19.15
2022-08-07T21:31:49.171Z,19.71
2022-08-07T21:37:58.714Z,19.99
2022-08-07T21:46:03.548Z,19.79
2022-08-07T21:52:43.223Z,19.35
2022-08-07T22:00:05.152Z,19.05
2022-08-07T23:56:38.810Z,18.11
